Latest Weather Observations for Temora

IDN60801

Issued at 11:03 pm EST Saturday 23 May 2015 (issued every 30 minutes, with the page automatically refreshed every 10 minutes)

About weather observations | Map of weather stations | Latest weather observations for NSW | Other Formats
Station Details ID: 073151 Name: TEMORA AIRPORT Lat: -34.43 Lon: 147.51 Height: 280.5 m
Data from the previous 72 hours. | See also: Recent months at Temora
Date/Time
EST
Temp
°C
App
Temp
°C
Dew
Point
Rel
Hum
%
Delta-T
°C
Wind Press
QNH
hPa
Press
MSL
hPa
Rain
since 9 am
mm
Dir
 
Spd
km/h
Gust
km/h
Spd
kts
Gust
kts
23/11:00pm 1.3 -1.7 0.7 96 0.2 SW 6 7 3 4 1030.5 1030.6 0.0
23/10:30pm 1.4 -1.6 0.7 95 0.3 SSW 6 7 3 4 1030.5 1030.6 0.0
23/10:00pm 2.6 -0.8 2.0 96 0.2 S 9 9 5 5 1030.5 1030.6 0.0
23/09:30pm 2.4 0.6 1.5 94 0.4 CALM 0 0 0 0 1030.7 1030.8 0.0
23/09:00pm 3.3 1.3 2.4 94 0.4 SSW 2 6 1 3 1030.7 1030.8 0.0
23/08:30pm 3.6 0.9 2.7 94 0.4 SSW 6 7 3 4 1030.6 1030.7 0.0
23/08:00pm 3.6 0.6 2.0 89 0.6 SSW 7 9 4 5 1030.4 1030.5 0.0
23/07:30pm 5.1 2.3 3.4 89 0.7 S 7 9 4 5 1030.5 1030.6 0.0
23/07:00pm 5.9 3.2 3.7 86 0.9 S 7 9 4 5 1030.4 1030.5 0.0
23/06:30pm 7.1 4.0 3.5 78 1.5 S 9 11 5 6 1030.1 1030.2 0.0
23/06:00pm 10.3 7.9 5.3 71 2.3 S 7 9 4 5 1029.9 1030.0 0.0
23/05:30pm 11.0 8.2 5.1 67 2.7 S 9 11 5 6 1029.6 1029.8 0.0
23/05:00pm 13.2 9.9 4.6 56 4.0 SSW 11 13 6 7 1029.6 1029.8 0.0
23/04:30pm 14.9 11.3 4.9 51 4.8 SSW 13 17 7 9 1029.5 1029.7 0.0
23/04:00pm 15.9 13.1 5.2 49 5.1 SSW 9 15 5 8 1029.5 1029.7 0.0
23/03:30pm 16.4 12.8 4.8 46 5.6 WSW 13 19 7 10 1029.5 1029.7 0.0
23/03:00pm 16.5 13.3 4.9 46 5.5 SW 11 26 6 14 1029.3 1029.5 0.0
23/02:30pm 16.4 12.4 5.1 47 5.5 WSW 15 20 8 11 1029.4 1029.6 0.0
23/02:00pm 16.2 14.1 5.8 50 5.1 SSE 6 11 3 6 1029.5 1029.7 0.0
23/01:30pm 15.8 13.0 5.1 49 5.1 SW 9 13 5 7 1029.7 1029.9 0.0
23/01:00pm 15.6 13.2 5.2 50 5.0 SW 7 13 4 7 1030.1 1030.2 0.0
23/12:30pm 14.8 12.4 4.5 50 4.9 WSW 6 13 3 7 1030.4 1030.5 0.0
23/12:00pm 15.1 12.8 4.8 50 4.9 NNE 6 11 3 6 1030.7 1030.8 0.0
23/11:30am 14.0 11.7 4.9 54 4.3 NNE 6 11 3 6 1031.2 1031.3 0.0
23/11:00am 12.8 9.9 4.8 58 3.7 ENE 9 13 5 7 1031.3 1031.5 0.0
23/10:30am 11.7 8.8 4.7 62 3.2 ENE 9 13 5 7 1031.6 1031.8 0.0
23/10:00am 10.7 7.8 4.6 66 2.8 NE 9 13 5 7 1031.7 1031.9 0.0
23/09:30am 10.0 6.8 5.2 72 2.2 ENE 11 15 6 8 1031.6 1031.8 0.0
23/09:00am 8.4 7.3 6.7 89 0.8 N 2 6 1 3 1031.4 1031.6 0.0
23/08:30am 4.9 3.4 4.8 99 0.0 S 2 6 1 3 1031.1 1031.2 0.0
23/08:00am 1.3 -1.7 1.0 98 0.1 S 6 7 3 4 1030.8 1030.9 0.0
23/07:30am 0.0 -2.0 -0.3 98 0.1 CALM 0 0 0 0 1030.6 1030.7 0.0
23/07:00am -0.1 -2.1 -0.4 98 0.1 CALM 0 0 0 0 1030.3 1030.4 0.0
23/06:30am 0.2 -1.8 -0.1 98 0.1 CALM 0 0 0 0 1030.1 1030.2 0.0
23/06:00am -0.1 -2.1 -0.4 98 0.1 CALM 0 0 0 0 1029.6 1029.8 0.0
23/05:30am -0.2 -3.0 -0.5 98 0.1 SSW 4 6 2 3 1029.3 1029.5 0.0
23/05:00am 0.8 -2.2 0.5 98 0.1 S 6 9 3 5 1029.0 1029.2 0.0
23/04:30am 0.6 -2.1 0.3 98 0.1 S 4 7 2 4 1028.9 1029.1 0.0
23/04:00am -0.1 -3.9 -0.5 97 0.1 S 9 11 5 6 1028.7 1028.9 0.0
23/03:30am 0.6 -2.7 0.2 97 0.1 S 7 9 4 5 1028.7 1028.9 0.0
23/03:00am 0.7 -2.4 0.3 97 0.1 SSW 6 7 3 4 1028.6 1028.8 0.0
23/02:30am 1.2 -0.7 0.8 97 0.2 CALM 0 0 0 0 1028.8 1029.0 0.0
23/02:00am 2.2 0.5 1.8 97 0.2 CALM 0 0 0 0 1028.9 1029.1 0.0
23/01:30am 2.3 0.6 1.9 97 0.2 CALM 0 0 0 0 1029.0 1029.2 0.0
23/01:00am 2.3 0.6 1.7 96 0.2 CALM 0 0 0 0 1028.9 1029.1 0.0
23/12:30am 2.8 1.2 2.2 96 0.2 CALM 0 0 0 0 1028.7 1028.9 0.0
23/12:00am 3.1 1.5 2.4 95 0.3 CALM 0 0 0 0 1028.8 1029.0 0.0
 
Date/Time
EST
Temp
°C
App
Temp
°C
Dew
Point
Rel
Hum
%
Delta-T
°C
Wind Press
QNH
hPa
Press
MSL
hPa
Rain
since 9 am
mm
Dir
 
Spd
km/h
Gust
km/h
Spd
kts
Gust
kts
22/11:30pm 3.6 2.1 2.9 95 0.3 CALM 0 0 0 0 1028.4 1028.6 0.0
22/11:00pm 3.7 2.2 2.8 94 0.4 CALM 0 0 0 0 1028.4 1028.6 0.0
22/10:30pm 4.0 1.4 3.0 93 0.4 SSW 6 9 3 5 1028.3 1028.5 0.0
22/10:00pm 4.6 1.2 3.9 95 0.3 S 11 13 6 7 1028.2 1028.4 0.0
22/09:30pm 5.1 2.5 4.2 94 0.4 S 7 9 4 5 1027.8 1027.9 0.0
22/09:00pm 5.2 3.5 4.0 92 0.5 SW 2 6 1 3 1027.6 1027.7 0.0
22/08:30pm 6.5 5.4 5.1 91 0.6 CALM 0 0 0 0 1027.4 1027.5 0.0
22/08:00pm 6.4 5.2 4.4 87 0.9 CALM 0 6 0 3 1027.2 1027.3 0.0
22/07:30pm 7.5 5.3 5.1 85 1.1 S 6 11 3 6 1026.9 1027.0 0.0
22/07:00pm 8.2 5.9 5.5 83 1.2 SSW 7 9 4 5 1026.5 1026.6 0.0
22/06:30pm 8.2 5.8 5.1 81 1.4 SSW 7 9 4 5 1026.3 1026.4 0.0
22/06:00pm 10.2 7.8 5.4 72 2.2 SSW 7 9 4 5 1025.8 1026.0 0.0
22/05:30pm 12.2 9.7 4.9 61 3.4 S 7 7 4 4 1025.6 1025.8 0.0
22/05:00pm 14.1 10.8 4.7 53 4.4 S 11 15 6 8 1025.3 1025.5 0.0
22/04:30pm 15.9 11.8 4.3 46 5.5 SSE 15 20 8 11 1025.0 1025.1 0.0
22/04:00pm 16.4 12.3 4.1 44 5.8 SSE 15 20 8 11 1024.7 1024.8 0.0
22/03:30pm 16.6 12.6 4.9 46 5.6 SE 15 22 8 12 1024.3 1024.4 0.0
22/03:00pm 17.1 13.1 6.6 50 5.2 SSE 17 22 9 12 1024.2 1024.3 0.0
22/02:30pm 17.1 13.2 5.4 46 5.7 SSE 15 22 8 12 1024.0 1024.1 0.0
22/02:00pm 17.1 13.0 6.0 48 5.5 SSE 17 24 9 13 1023.7 1023.8 0.0
22/01:30pm 16.9 12.3 5.8 48 5.5 SSE 19 28 10 15 1023.6 1023.7 0.0
22/01:00pm 16.3 11.6 5.9 50 5.1 SSE 20 30 11 16 1023.8 1023.9 0.0
22/12:30pm 16.3 11.2 7.5 56 4.5 S 24 32 13 17 1023.8 1023.9 0.0
22/12:00pm 16.2 10.7 7.4 56 4.4 S 26 39 14 21 1023.9 1024.0 0.0
22/11:30am 15.7 10.3 8.0 60 3.9 S 26 35 14 19 1024.1 1024.2 0.0
22/11:00am 15.7 11.3 8.9 64 3.5 SSW 22 33 12 18 1024.2 1024.3 0.0
22/10:30am 14.9 9.8 9.3 69 2.9 S 26 35 14 19 1024.0 1024.1 0.0
22/10:00am 12.9 9.9 9.4 79 1.8 S 15 20 8 11 1023.8 1023.9 0.0
22/09:30am 12.0 9.1 9.7 86 1.2 S 15 20 8 11 1023.5 1023.6 0.0
22/09:00am 10.2 8.4 9.3 94 0.5 SSW 9 13 5 7 1023.3 1023.4 0.2
22/08:30am 9.0 6.9 8.2 95 0.4 SSW 9 11 5 6 1023.0 1023.1 0.2
22/08:00am 8.9 6.9 8.5 97 0.2 S 9 13 5 7 1022.7 1022.8 0.2
22/07:30am 8.6 6.5 8.3 98 0.1 SSW 9 11 5 6 1022.4 1022.5 0.2
22/07:00am 8.3 6.1 8.0 98 0.1 S 9 11 5 6 1021.8 1021.9 0.2
22/06:30am 8.3 7.1 8.2 99 0.0 SSW 4 9 2 5 1021.6 1021.7 0.2
22/06:00am 8.3 7.5 8.2 99 0.0 SW 2 9 1 5 1021.3 1021.4 0.2
22/05:30am 8.2 5.3 8.1 99 0.0 SSW 13 17 7 9 1021.1 1021.2 0.2
22/05:00am 7.9 5.7 7.8 99 0.0 SW 9 13 5 7 1020.8 1020.9 0.0
22/04:30am 7.4 4.7 7.3 99 0.0 S 11 15 6 8 1020.8 1020.9 0.0
22/04:00am 7.0 3.8 6.9 99 0.0 SSW 13 17 7 9 1020.7 1020.8 0.0
22/03:30am 3.6 0.9 3.5 99 0.0 SW 7 11 4 6 1020.3 1020.4 0.0
22/03:00am 3.8 1.6 3.5 98 0.1 SSW 4 9 2 5 1020.4 1020.5 0.0
22/02:30am 3.7 1.0 3.6 99 0.0 SSW 7 11 4 6 1020.4 1020.5 0.0
22/02:00am 3.1 -0.1 2.8 98 0.1 S 9 11 5 6 1020.4 1020.5 0.0
22/01:30am 4.4 1.4 4.1 98 0.1 SSW 9 13 5 7 1020.4 1020.5 0.0
22/01:00am 4.4 1.4 4.1 98 0.1 SSW 9 11 5 6 1020.4 1020.5 0.0
22/12:30am 5.4 3.0 5.1 98 0.1 S 7 9 4 5 1020.7 1020.8 0.0
22/12:00am 5.3 2.8 5.0 98 0.1 SSW 7 9 4 5 1020.7 1020.8 0.0
 
Date/Time
EST
Temp
°C
App
Temp
°C
Dew
Point
Rel
Hum
%
Delta-T
°C
Wind Press
QNH
hPa
Press
MSL
hPa
Rain
since 9 am
mm
Dir
 
Spd
km/h
Gust
km/h
Spd
kts
Gust
kts
21/11:30pm 5.9 3.8 5.6 98 0.1 SSW 6 7 3 4 1020.8 1020.9 0.0
21/11:00pm 5.4 3.5 5.1 98 0.1 SSW 4 11 2 6 1020.7 1020.8 0.0
21/10:30pm 5.6 3.4 5.3 98 0.1 SSW 6 7 3 4 1020.7 1020.8 0.0
21/10:00pm 6.1 3.8 5.7 97 0.2 S 7 9 4 5 1020.6 1020.7 0.0
21/09:30pm 6.0 3.6 5.4 96 0.3 SSW 7 9 4 5 1020.5 1020.6 0.0
21/09:00pm 6.4 4.7 5.8 96 0.3 SSW 4 6 2 3 1020.6 1020.7 0.0
21/08:30pm 6.6 5.2 5.7 94 0.4 SW 2 7 1 4 1020.4 1020.5 0.0
21/08:00pm 7.7 6.9 6.6 93 0.5 CALM 0 0 0 0 1020.5 1020.6 0.0
21/07:30pm 8.1 7.3 6.6 90 0.7 CALM 0 0 0 0 1020.5 1020.6 0.0
21/07:00pm 9.2 7.8 7.2 87 1.0 SSW 4 7 2 4 1020.1 1020.2 0.0
21/06:30pm 10.0 8.1 7.4 84 1.3 SSW 7 9 4 5 1019.8 1019.9 0.0
21/06:00pm 11.6 9.3 7.5 76 2.0 SW 9 11 5 6 1019.7 1019.8 0.0
21/05:30pm 12.2 9.9 7.3 72 2.4 SSW 9 11 5 6 1019.6 1019.7 0.0
21/05:00pm 13.5 10.9 7.7 68 2.9 SSE 11 15 6 8 1019.4 1019.5 0.0
21/04:30pm 14.5 11.7 6.8 60 3.8 SSE 11 17 6 9 1019.3 1019.4 0.0
21/04:00pm 14.7 12.1 6.3 57 4.1 SSW 9 11 5 6 1019.3 1019.4 0.0
21/03:30pm 15.1 11.8 6.4 56 4.3 S 13 19 7 10 1019.2 1019.3 0.0
21/03:00pm 14.7 11.5 7.0 60 3.8 S 13 17 7 9 1019.3 1019.4 0.0
21/02:30pm 14.8 11.3 7.1 60 3.8 S 15 20 8 11 1019.3 1019.4 0.0
21/02:00pm 16.1 13.0 7.1 55 4.5 SW 13 17 7 9 1019.2 1019.3 0.0
21/01:30pm 16.3 13.5 7.0 54 4.7 WSW 11 15 6 8 1019.4 1019.5 0.0
21/01:00pm 15.1 12.1 7.6 61 3.8 SSW 13 17 7 9 1019.7 1019.8 0.0
21/12:30pm 15.5 12.0 5.4 51 4.9 W 13 17 7 9 1019.9 1020.0 0.0
21/12:00pm 16.0 13.5 6.4 53 4.7 WNW 9 13 5 7 1020.3 1020.4 0.0
21/11:30am 15.2 14.5 7.0 58 4.1 CALM 0 6 0 3 1020.6 1020.7 0.0
21/11:00am 14.9 14.1 8.2 64 3.4 E 2 7 1 4 1020.9 1021.0 0.0
21/10:30am 14.0 12.5 8.6 70 2.8 NNW 6 9 3 5 1021.0 1021.1 0.0
21/10:00am 13.1 12.9 9.0 76 2.1 CALM 0 0 0 0 1021.0 1021.1 0.0
21/09:30am 10.4 9.0 8.8 90 0.8 SSE 6 7 3 4 1020.9 1021.0 0.0
21/09:00am 9.8 9.8 9.7 99 0.1 CALM 0 0 0 0 1020.7 1020.8 0.2
21/08:30am 6.9 5.0 6.8 99 0.0 SSE 6 6 3 3 1020.7 1020.8 0.2
21/08:00am 4.8 3.6 4.7 99 0.0 CALM 0 0 0 0 1020.5 1020.6 0.2
21/07:30am 3.2 0.0 3.1 99 0.0 S 9 9 5 5 1020.2 1020.3 0.2
21/07:00am 2.0 -1.0 1.7 98 0.1 S 7 7 4 4 1020.0 1020.1 0.2
21/06:30am 2.4 -0.4 2.1 98 0.1 S 6 7 3 4 1019.7 1019.8 0.2
21/06:00am 3.1 1.6 3.0 99 0.0 CALM 0 0 0 0 1019.5 1019.6 0.2
21/05:30am 2.9 0.2 2.6 98 0.1 S 6 7 3 4 1019.3 1019.4 0.2
21/05:00am 3.1 0.4 2.8 98 0.1 SSW 6 7 3 4 1019.3 1019.4 0.2
21/04:30am 4.0 2.6 3.7 98 0.1 CALM 0 0 0 0 1019.0 1019.0 0.2
21/04:00am 4.2 2.9 3.9 98 0.1 CALM 0 0 0 0 1018.9 1018.9 0.2
21/03:30am 4.8 3.6 4.5 98 0.1 CALM 0 0 0 0 1018.9 1018.9 0.2
21/03:00am 4.3 3.0 3.9 97 0.2 CALM 0 4 0 2 1019.0 1019.0 0.2
21/02:30am 5.1 2.8 4.7 97 0.2 S 6 7 3 4 1019.1 1019.1 0.2
21/02:00am 6.1 5.1 5.5 96 0.3 CALM 0 0 0 0 1019.2 1019.3 0.2
21/01:30am 6.6 5.7 5.9 95 0.3 CALM 0 0 0 0 1019.2 1019.3 0.2
21/01:00am 7.5 6.8 6.8 95 0.3 CALM 0 0 0 0 1019.2 1019.3 0.2
21/12:30am 8.0 7.4 7.2 95 0.4 CALM 0 0 0 0 1019.2 1019.3 0.2
21/12:00am 8.4 7.8 7.5 94 0.4 CALM 0 0 0 0 1019.2 1019.3 0.2
 
Date/Time
EST
Temp
°C
App
Temp
°C
Dew
Point
Rel
Hum
%
Delta-T
°C
Wind Press
QNH
hPa
Press
MSL
hPa
Rain
since 9 am
mm
Dir
 
Spd
km/h
Gust
km/h
Spd
kts
Gust
kts
20/11:30pm 8.8 7.8 7.4 91 0.7 SW 2 6 1 3 1019.0 1019.0 0.2

Other Formats:

Comma delimited format used in spreadsheet applications
http://www.bom.gov.au/fwo/IDN60801/IDN60801.95722.axf

JavaScript Object Notation format (JSON) in row-major order
http://www.bom.gov.au/fwo/IDN60801/IDN60801.95722.json